Time;durP1;ratioP1;P1;durP2;ratioP2;P2;SDS_P1;SDS_P2;PMS_P1;PMS_P2;Temp;Humidity;BMP_temperature;BMP_pressure;BME280_temperature;BME280_humidity;BME280_pressure;Samples;Min_cycle;Max_cycle;Signal;HPM_P1;HPM_P2
2023/08/15 00:00:08;;;;;;;;;;;;;;;;;;4919683;28;107253;-78
2023/08/15 00:02:37;;;;;;;;;;;;;;;;;;4889042;28;92073;-78
2023/08/15 00:05:04;;;;;;;;;;;;;;;;;;4922578;28;95046;-79
2023/08/15 00:07:50;;;;;;;;;;;;;;;;;;4906144;28;92550;-78
2023/08/15 00:10:17;;;;;;;;;;;;;;;;;;4919332;28;106557;-78
2023/08/15 00:12:43;;;;;;;;;;;;;;;;;;4902120;28;114866;-78
2023/08/15 00:15:09;;;;;;;;;;;;;;;;;;4918710;28;121941;-79
2023/08/15 00:17:36;;;;;;;;;;;;;;;;;;4918897;28;118233;-78
2023/08/15 00:20:02;;;;;;;;;;;;;;;;;;4905848;28;96297;-78
2023/08/15 00:22:29;;;;;;;;;;;;;;;;;;4919512;28;106342;-78
2023/08/15 00:24:55;;;;;;;;;;;;;;;;;;4918328;28;116261;-78
2023/08/15 00:27:21;;;;;;;;;;;;;;;;;;4922150;28;109871;-78
2023/08/15 00:29:48;;;;;;;;;;;;;;;;;;4901131;28;115706;-79
2023/08/15 00:32:14;;;;;;;;;;;;;;;;;;4900989;28;120721;-78
2023/08/15 00:34:42;;;;;;;;;;;;;;;;;;4899715;28;93629;-78
2023/08/15 00:37:08;;;;;;;;;;;;;;;;;;4919283;28;92026;-78
2023/08/15 00:39:35;;;;;;;;;;;;;;;;;;4901235;28;104418;-78
2023/08/15 00:42:01;;;;;;;;;;;;;;;;;;4916681;28;119989;-78
2023/08/15 00:44:27;;;;;;;;;;;;;;;;;;4901148;28;116460;-78
2023/08/15 00:46:54;;;;;;;;;;;;;;;;;;4921362;28;119240;-78
2023/08/15 00:49:20;;;;;;;;;;;;;;;;;;4918471;28;115262;-78
2023/08/15 00:51:47;;;;;;;;;;;;;;;;;;4900948;28;93137;-78
2023/08/15 00:54:15;;;;;;;;;;;;;;;;;;4916386;28;122300;-78
2023/08/15 00:56:42;;;;;;;;;;;;;;;;;;4897838;28;91926;-78
2023/08/15 00:59:08;;;;;;;;;;;;;;;;;;4893247;28;121544;-78
2023/08/15 01:01:36;;;;;;;;;;;;;;;;;;4883363;28;95599;-78
2023/08/15 01:04:02;;;;;;;;;;;;;;;;;;4887175;28;116287;-78
2023/08/15 01:06:29;;;;;;;;;;;;;;;;;;4874183;28;105869;-78
2023/08/15 01:08:55;;;;;;;;;;;;;;;;;;4899621;28;121121;-78
2023/08/15 01:11:24;;;;;;;;;;;;;;;;;;4908067;28;92449;-78
2023/08/15 01:13:50;;;;;;;;;;;;;;;;;;4893856;28;121197;-79
2023/08/15 01:16:16;;;;;;;;;;;;;;;;;;4903003;28;113486;-78
2023/08/15 01:18:43;;;;;;;;;;;;;;;;;;4886400;28;122254;-78
2023/08/15 01:21:09;;;;;;;;;;;;;;;;;;4919877;28;122294;-78
2023/08/15 01:23:35;;;;;;;;;;;;;;;;;;4921366;28;91990;-79
2023/08/15 01:26:02;;;;;;;;;;;;;;;;;;4892057;28;94152;-78
2023/08/15 01:28:30;;;;;;;;;;;;;;;;;;4891981;28;93752;-79
2023/08/15 01:30:57;;;;;;;;;;;;;;;;;;4925092;28;91799;-78
2023/08/15 01:33:25;;;;;;;;;;;;;;;;;;4921788;28;91941;-78
2023/08/15 01:35:51;;;;;;;;;;;;;;;;;;4921102;28;114651;-79
2023/08/15 01:38:18;;;;;;;;;;;;;;;;;;4917661;28;121372;-79
2023/08/15 01:40:44;;;;;;;;;;;;;;;;;;4920217;28;95328;-78
2023/08/15 01:43:11;;;;;;;;;;;;;;;;;;4880269;28;99037;-78
2023/08/15 01:45:37;;;;;;;;;;;;;;;;;;4899493;28;122469;-79
2023/08/15 01:48:04;;;;;;;;;;;;;;;;;;4895471;28;121152;-78
2023/08/15 01:50:30;;;;;;;;;;;;;;;;;;4889573;28;121563;-79
2023/08/15 01:52:57;;;;;;;;;;;;;;;;;;4888858;28;110284;-78
2023/08/15 01:55:23;;;;;;;;;;;;;;;;;;4901068;28;91752;-78
2023/08/15 01:57:49;;;;;;;;;;;;;;;;;;4899969;28;122720;-78
2023/08/15 02:00:16;;;;;;;;;;;;;;;;;;4912541;28;117531;-79
2023/08/15 02:02:42;;;;;;;;;;;;;;;;;;4890218;28;92588;-79
2023/08/15 02:05:09;;;;;;;;;;;;;;;;;;4893610;28;123396;-79
2023/08/15 02:07:35;;;;;;;;;;;;;;;;;;4890549;28;92664;-78
2023/08/15 02:10:01;;;;;;;;;;;;;;;;;;4885267;28;120856;-79
2023/08/15 02:12:28;;;;;;;;;;;;;;;;;;4897527;28;105275;-79
2023/08/15 02:14:54;;;;;;;;;;;;;;;;;;4901970;28;122299;-78
2023/08/15 02:17:21;;;;;;;;;;;;;;;;;;4897869;28;125425;-79
2023/08/15 02:19:47;;;;;;;;;;;;;;;;;;4899439;28;92658;-78
2023/08/15 02:22:14;;;;;;;;;;;;;;;;;;4884501;28;92557;-77
2023/08/15 02:24:41;;;;;;;;;;;;;;;;;;4899842;28;123219;-78
2023/08/15 02:27:07;;;;;;;;;;;;;;;;;;4897383;28;122432;-78
2023/08/15 02:29:33;;;;;;;;;;;;;;;;;;4900881;28;92552;-79
2023/08/15 02:32:00;;;;;;;;;;;;;;;;;;4884517;28;123144;-78
2023/08/15 02:34:26;;;;;;;;;;;;;;;;;;4899359;28;122594;-78
2023/08/15 02:36:53;;;;;;;;;;;;;;;;;;4886629;28;106231;-78
2023/08/15 02:39:19;;;;;;;;;;;;;;;;;;4897309;28;109971;-77
2023/08/15 02:41:45;;;;;;;;;;;;;;;;;;4894455;28;114434;-77
2023/08/15 02:44:12;;;;;;;;;;;;;;;;;;4914708;28;122931;-78
2023/08/15 02:46:38;;;;;;;;;;;;;;;;;;4904513;28;122328;-78
2023/08/15 02:49:05;;;;;;;;;;;;;;;;;;4916593;28;122230;-78
2023/08/15 02:51:31;;;;;;;;;;;;;;;;;;4912011;28;103844;-78
2023/08/15 02:53:57;;;;;;;;;;;;;;;;;;4897238;28;122223;-78
2023/08/15 02:56:24;;;;;;;;;;;;;;;;;;4910020;28;120565;-78
2023/08/15 02:58:52;;;;;;;;;;;;;;;;;;4915348;28;92333;-78
2023/08/15 03:01:18;;;;;;;;;;;;;;;;;;4917030;28;95069;-78
2023/08/15 03:03:45;;;;;;;;;;;;;;;;;;4893837;28;122746;-78
2023/08/15 03:06:11;;;;;;;;;;;;;;;;;;4899763;28;122365;-78
2023/08/15 03:08:38;;;;;;;;;;;;;;;;;;4899493;28;110339;-78
2023/08/15 03:11:04;;;;;;;;;;;;;;;;;;4898680;28;121323;-78
2023/08/15 03:13:31;;;;;;;;;;;;;;;;;;4909645;28;121083;-78
2023/08/15 03:15:57;;;;;;;;;;;;;;;;;;4894023;28;92541;-78
2023/08/15 03:18:27;;;;;;;;;;;;;;;;;;4894974;28;94110;-79
2023/08/15 03:20:54;;;;;;;;;;;;;;;;;;4909889;28;114799;-78
2023/08/15 03:23:20;;;;;;;;;;;;;;;;;;4898941;28;124914;-78
2023/08/15 03:25:46;;;;;;;;;;;;;;;;;;4883979;28;123679;-79
2023/08/15 03:28:13;;;;;;;;;;;;;;;;;;4885775;28;98903;-79
2023/08/15 03:30:39;;;;;;;;;;;;;;;;;;4906926;28;121113;-78
2023/08/15 03:33:06;;;;;;;;;;;;;;;;;;4892207;28;113710;-78
2023/08/15 03:35:32;;;;;;;;;;;;;;;;;;4900935;28;93626;-79
2023/08/15 03:37:59;;;;;;;;;;;;;;;;;;4901779;28;94147;-78
2023/08/15 03:40:25;;;;;;;;;;;;;;;;;;4921256;28;122414;-79
2023/08/15 03:42:51;;;;;;;;;;;;;;;;;;4901109;28;122573;-78
2023/08/15 03:45:18;;;;;;;;;;;;;;;;;;4907084;28;95774;-78
2023/08/15 03:47:44;;;;;;;;;;;;;;;;;;4913007;28;92422;-78
2023/08/15 03:50:11;;;;;;;;;;;;;;;;;;4888039;28;120272;-79
2023/08/15 03:52:39;;;;;;;;;;;;;;;;;;4900866;28;114434;-78
2023/08/15 03:55:06;;;;;;;;;;;;;;;;;;4919050;28;92407;-78
2023/08/15 03:57:33;;;;;;;;;;;;;;;;;;4901814;28;93373;-79
2023/08/15 04:00:00;;;;;;;;;;;;;;;;;;4884848;28;94021;-78
2023/08/15 04:02:26;;;;;;;;;;;;;;;;;;4889657;28;120798;-79
2023/08/15 04:04:52;;;;;;;;;;;;;;;;;;4909606;28;121116;-78
2023/08/15 04:07:19;;;;;;;;;;;;;;;;;;4918405;28;121088;-79
2023/08/15 04:09:45;;;;;;;;;;;;;;;;;;4918094;28;122327;-78
2023/08/15 04:12:12;;;;;;;;;;;;;;;;;;4900805;28;93589;-78
2023/08/15 04:14:39;;;;;;;;;;;;;;;;;;4898225;28;121934;-78
2023/08/15 04:17:06;;;;;;;;;;;;;;;;;;4882673;28;95819;-78
2023/08/15 04:19:33;;;;;;;;;;;;;;;;;;4885742;28;95447;-78
2023/08/15 04:21:59;;;;;;;;;;;;;;;;;;4915809;28;120793;-78
2023/08/15 04:24:25;;;;;;;;;;;;;;;;;;4920091;28;93452;-78
2023/08/15 04:26:52;;;;;;;;;;;;;;;;;;4900004;28;93154;-78
2023/08/15 04:29:19;;;;;;;;;;;;;;;;;;4897879;28;121258;-78
2023/08/15 04:31:45;;;;;;;;;;;;;;;;;;4900607;28;123548;-78
2023/08/15 04:34:11;;;;;;;;;;;;;;;;;;4894271;28;118080;-78
2023/08/15 04:36:43;;;;;;;;;;;;;;;;;;4899367;28;92518;-79
2023/08/15 04:39:10;;;;;;;;;;;;;;;;;;4917692;28;94946;-78
2023/08/15 04:41:36;;;;;;;;;;;;;;;;;;4917412;28;94639;-79
2023/08/15 04:44:03;;;;;;;;;;;;;;;;;;4902796;28;114926;-78
2023/08/15 04:46:29;;;;;;;;;;;;;;;;;;4907872;28;92753;-81
2023/08/15 04:48:55;;;;;;;;;;;;;;;;;;4910804;28;121268;-79
2023/08/15 04:51:22;;;;;;;;;;;;;;;;;;4902176;28;121265;-79
2023/08/15 04:53:48;;;;;;;;;;;;;;;;;;4912249;28;121961;-79
2023/08/15 04:56:15;;;;;;;;;;;;;;;;;;4899655;28;94295;-79
2023/08/15 04:58:43;;;;;;;;;;;;;;;;;;4893643;28;92866;-78
2023/08/15 05:01:09;;;;;;;;;;;;;;;;;;4903629;28;92697;-78
2023/08/15 05:03:35;;;;;;;;;;;;;;;;;;4901351;28;122024;-78
2023/08/15 05:06:02;;;;;;;;;;;;;;;;;;4922683;28;116549;-78
2023/08/15 05:08:29;;;;;;;;;;;;;;;;;;4902745;28;113802;-78
2023/08/15 05:10:55;;;;;;;;;;;;;;;;;;4920896;28;92678;-78
2023/08/15 05:13:21;;;;;;;;;;;;;;;;;;4902066;28;120756;-78
2023/08/15 05:15:48;;;;;;;;;;;;;;;;;;4886647;28;95146;-78
2023/08/15 05:18:17;;;;;;;;;;;;;;;;;;4901189;28;123702;-78
2023/08/15 05:20:44;;;;;;;;;;;;;;;;;;4917963;28;92804;-78
2023/08/15 05:23:10;;;;;;;;;;;;;;;;;;4899316;28;121310;-79
2023/08/15 05:25:37;;;;;;;;;;;;;;;;;;4892715;28;107861;-78
2023/08/15 05:28:04;;;;;;;;;;;;;;;;;;4900281;28;94821;-78
2023/08/15 05:30:31;;;;;;;;;;;;;;;;;;4888421;28;121303;-78
2023/08/15 05:32:58;;;;;;;;;;;;;;;;;;4896250;28;114755;-78
2023/08/15 05:35:24;;;;;;;;;;;;;;;;;;4893059;28;96487;-79
2023/08/15 05:37:50;;;;;;;;;;;;;;;;;;4917613;28;122942;-78
2023/08/15 05:40:17;;;;;;;;;;;;;;;;;;4896693;28;122070;-79
2023/08/15 05:42:44;;;;;;;;;;;;;;;;;;4902361;28;92301;-78
2023/08/15 05:45:10;;;;;;;;;;;;;;;;;;4918011;28;121112;-78
2023/08/15 05:47:36;;;;;;;;;;;;;;;;;;4916904;28;121298;-78
2023/08/15 05:50:03;;;;;;;;;;;;;;;;;;4891256;28;116705;-79
2023/08/15 05:52:29;;;;;;;;;;;;;;;;;;4887074;28;118880;-79
2023/08/15 05:54:56;;;;;;;;;;;;;;;;;;4915987;28;122607;-79
2023/08/15 05:57:22;;;;;;;;;;;;;;;;;;4901594;28;124746;-79
2023/08/15 05:59:48;;;;;;;;;;;;;;;;;;4903524;28;94650;-79
2023/08/15 06:02:15;;;;;;;;;;;;;;;;;;4919154;28;122514;-78
2023/08/15 06:04:41;;;;;;;;;;;;;;;;;;4920362;28;92452;-79
2023/08/15 06:07:08;;;;;;;;;;;;;;;;;;4918327;28;119904;-78
2023/08/15 06:09:34;;;;;;;;;;;;;;;;;;4918141;28;119092;-79
2023/08/15 06:12:01;;;;;;;;;;;;;;;;;;4908263;28;92513;-79
2023/08/15 06:14:27;;;;;;;;;;;;;;;;;;4917987;28;121454;-78
2023/08/15 06:16:54;;;;;;;;;;;;;;;;;;4902970;28;121070;-79
2023/08/15 06:19:20;;;;;;;;;;;;;;;;;;4891542;28;120407;-80
2023/08/15 06:21:46;;;;;;;;;;;;;;;;;;4888113;28;123800;-79
2023/08/15 06:24:13;;;;;;;;;;;;;;;;;;4900983;28;122596;-79
2023/08/15 06:26:39;;;;;;;;;;;;;;;;;;4919089;28;98864;-79
2023/08/15 06:29:06;;;;;;;;;;;;;;;;;;4890416;28;121160;-79
2023/08/15 06:31:32;;;;;;;;;;;;;;;;;;4913635;28;100636;-79
2023/08/15 06:33:59;;;;;;;;;;;;;;;;;;4909863;28;92230;-79
2023/08/15 06:36:25;;;;;;;;;;;;;;;;;;4881866;28;124044;-79
2023/08/15 06:38:51;;;;;;;;;;;;;;;;;;4870306;28;120812;-79
2023/08/15 06:41:18;;;;;;;;;;;;;;;;;;4906556;28;123918;-79
2023/08/15 06:43:44;;;;;;;;;;;;;;;;;;4903248;28;92363;-79
2023/08/15 06:46:11;;;;;;;;;;;;;;;;;;4919006;28;120643;-79
2023/08/15 06:48:37;;;;;;;;;;;;;;;;;;4920268;28;122648;-79
2023/08/15 06:51:03;;;;;;;;;;;;;;;;;;4904496;28;121092;-79
2023/08/15 06:53:30;;;;;;;;;;;;;;;;;;4892636;28;120933;-81
2023/08/15 06:55:56;;;;;;;;;;;;;;;;;;4921588;28;92414;-79
2023/08/15 06:58:23;;;;;;;;;;;;;;;;;;4900314;28;120637;-79
2023/08/15 07:00:49;;;;;;;;;;;;;;;;;;4911672;28;121271;-79
2023/08/15 07:03:15;;;;;;;;;;;;;;;;;;4902184;28;103333;-79
2023/08/15 07:05:42;;;;;;;;;;;;;;;;;;4918280;28;117005;-79
2023/08/15 07:08:08;;;;;;;;;;;;;;;;;;4887680;28;122695;-79
2023/08/15 07:10:35;;;;;;;;;;;;;;;;;;4916426;28;121022;-77
2023/08/15 07:13:01;;;;;;;;;;;;;;;;;;4901366;28;95728;-78
2023/08/15 07:15:28;;;;;;;;;;;;;;;;;;4903859;28;122510;-78
2023/08/15 07:17:54;;;;;;;;;;;;;;;;;;4920076;28;106159;-78
2023/08/15 07:20:21;;;;;;;;;;;;;;;;;;4917582;28;93614;-78
2023/08/15 07:22:47;;;;;;;;;;;;;;;;;;4918903;28;92653;-78
2023/08/15 07:25:14;;;;;;;;;;;;;;;;;;4916172;28;119804;-77
2023/08/15 07:27:40;;;;;;;;;;;;;;;;;;4915977;28;122693;-77
2023/08/15 07:30:06;;;;;;;;;;;;;;;;;;4914689;28;119979;-78
2023/08/15 07:32:33;;;;;;;;;;;;;;;;;;4899589;28;123349;-78
2023/08/15 07:35:00;;;;;;;;;;;;;;;;;;4917630;28;121441;-78
2023/08/15 07:37:26;;;;;;;;;;;;;;;;;;4920390;28;92272;-78
2023/08/15 07:39:53;;;;;;;;;;;;;;;;;;4916610;28;120333;-79
2023/08/15 07:42:19;;;;;;;;;;;;;;;;;;4892170;28;95046;-78
2023/08/15 07:44:47;;;;;;;;;;;;;;;;;;4910138;28;122871;-79
2023/08/15 07:47:13;;;;;;;;;;;;;;;;;;4889689;28;111432;-78
2023/08/15 07:49:39;;;;;;;;;;;;;;;;;;4917855;28;120303;-79
2023/08/15 07:52:06;;;;;;;;;;;;;;;;;;4918024;28;121902;-79
2023/08/15 07:54:32;;;;;;;;;;;;;;;;;;4884356;28;96656;-78
2023/08/15 07:56:58;;;;;;;;;;;;;;;;;;4917750;28;121156;-78
2023/08/15 07:59:25;;;;;;;;;;;;;;;;;;4921119;28;109670;-78
2023/08/15 08:01:51;;;;;;;;;;;;;;;;;;4912445;28;120966;-78
2023/08/15 08:04:19;;;;;;;;;;;;;;;;;;4916865;28;120980;-84
2023/08/15 08:06:45;;;;;;;;;;;;;;;;;;4900637;28;92835;-82
2023/08/15 08:09:12;;;;;;;;;;;;;;;;;;4899815;28;123589;-77
2023/08/15 08:11:38;;;;;;;;;;;;;;;;;;4915917;28;92196;-77
2023/08/15 08:14:04;;;;;;;;;;;;;;;;;;4915364;28;122434;-79
2023/08/15 08:16:31;;;;;;;;;;;;;;;;;;4913791;28;120241;-79
2023/08/15 08:18:57;;;;;;;;;;;;;;;;;;4892194;28;120666;-78
2023/08/15 08:21:23;;;;;;;;;;;;;;;;;;4922357;28;111122;-78
2023/08/15 08:23:50;;;;;;;;;;;;;;;;;;4920949;28;121907;-78
2023/08/15 08:26:16;;;;;;;;;;;;;;;;;;4921760;28;92274;-78
2023/08/15 08:28:42;;;;;;;;;;;;;;;;;;4878911;28;122333;-78
2023/08/15 08:31:09;;;;;;;;;;;;;;;;;;4919685;28;102363;-77
2023/08/15 08:33:35;;;;;;;;;;;;;;;;;;4918374;28;122206;-77
2023/08/15 08:36:02;;;;;;;;;;;;;;;;;;4914087;28;105583;-81
2023/08/15 08:38:28;;;;;;;;;;;;;;;;;;4904187;28;119031;-79
2023/08/15 08:40:55;;;;;;;;;;;;;;;;;;4921997;28;122499;-79
2023/08/15 08:43:22;;;;;;;;;;;;;;;;;;4915913;28;122118;-78
2023/08/15 08:45:51;;;;;;;;;;;;;;;;;;4911491;28;116438;-78
2023/08/15 08:48:18;;;;;;;;;;;;;;;;;;4912913;28;106886;-79
2023/08/15 08:50:44;;;;;;;;;;;;;;;;;;4922022;28;117260;-80
2023/08/15 08:53:10;;;;;;;;;;;;;;;;;;4906428;28;122862;-79
2023/08/15 08:55:37;;;;;;;;;;;;;;;;;;4903285;28;118971;-79
2023/08/15 08:58:03;;;;;;;;;;;;;;;;;;4921356;28;100174;-78
2023/08/15 09:00:30;;;;;;;;;;;;;;;;;;4922368;28;121137;-79
2023/08/15 09:02:56;;;;;;;;;;;;;;;;;;4923554;28;113523;-79
2023/08/15 09:05:23;;;;;;;;;;;;;;;;;;4915031;28;102387;-79
2023/08/15 09:07:49;;;;;;;;;;;;;;;;;;4900225;28;101637;-80
2023/08/15 09:10:15;;;;;;;;;;;;;;;;;;4921615;28;123029;-78
2023/08/15 09:12:43;;;;;;;;;;;;;;;;;;4921835;28;92390;-78
2023/08/15 09:15:09;;;;;;;;;;;;;;;;;;4914826;28;120932;-80
2023/08/15 09:17:35;;;;;;;;;;;;;;;;;;4896972;28;122797;-79
2023/08/15 09:20:02;;;;;;;;;;;;;;;;;;4921166;28;123416;-81
2023/08/15 09:22:28;;;;;;;;;;;;;;;;;;4923959;28;92222;-82
2023/08/15 09:24:55;;;;;;;;;;;;;;;;;;4901133;28;122044;-83
2023/08/15 09:27:21;;;;;;;;;;;;;;;;;;4896341;28;122195;-82
2023/08/15 09:29:48;;;;;;;;;;;;;;;;;;4917720;28;120756;-79
2023/08/15 09:32:15;;;;;;;;;;;;;;;;;;4917135;28;109188;-85
2023/08/15 09:34:41;;;;;;;;;;;;;;;;;;4906663;28;122494;-84
2023/08/15 09:37:08;;;;;;;;;;;;;;;;;;4898225;28;124344;-80
2023/08/15 09:39:35;;;;;;;;;;;;;;;;;;4897653;28;123027;-80
2023/08/15 09:42:01;;;;;;;;;;;;;;;;;;4917709;28;122240;-80
2023/08/15 09:44:28;;;;;;;;;;;;;;;;;;4897657;28;120920;-80
2023/08/15 09:46:54;;;;;;;;;;;;;;;;;;4903723;28;95656;-79
2023/08/15 09:49:20;;;;;;;;;;;;;;;;;;4885823;28;124395;-80
2023/08/15 09:51:47;;;;;;;;;;;;;;;;;;4890633;28;97551;-80
2023/08/15 09:54:14;;;;;;;;;;;;;;;;;;4918748;28;121075;-80
2023/08/15 09:56:40;;;;;;;;;;;;;;;;;;4918268;28;121891;-80
2023/08/15 09:59:07;;;;;;;;;;;;;;;;;;4904365;28;95002;-80
2023/08/15 10:01:33;;;;;;;;;;;;;;;;;;4902946;28;121379;-81
2023/08/15 10:04:00;;;;;;;;;;;;;;;;;;4898916;28;92202;-80
2023/08/15 10:06:26;;;;;;;;;;;;;;;;;;4907496;28;121644;-81
2023/08/15 10:08:52;;;;;;;;;;;;;;;;;;4906129;28;121086;-81
2023/08/15 10:11:19;;;;;;;;;;;;;;;;;;4920891;28;123675;-80
2023/08/15 10:13:45;;;;;;;;;;;;;;;;;;4888733;28;123280;-80
2023/08/15 10:16:14;;;;;;;;;;;;;;;;;;4922632;28;120248;-81
2023/08/15 10:18:41;;;;;;;;;;;;;;;;;;4897612;28;119447;-80
2023/08/15 10:21:07;;;;;;;;;;;;;;;;;;4897231;28;122361;-80
2023/08/15 10:23:34;;;;;;;;;;;;;;;;;;4918867;28;103233;-81
2023/08/15 10:26:00;;;;;;;;;;;;;;;;;;4886399;28;125888;-80
2023/08/15 10:28:27;;;;;;;;;;;;;;;;;;4920676;28;93745;-80
2023/08/15 10:30:54;;;;;;;;;;;;;;;;;;4884606;28;121487;-80
2023/08/15 10:33:20;;;;;;;;;;;;;;;;;;4921057;28;120438;-80
2023/08/15 10:35:46;;;;;;;;;;;;;;;;;;4917151;28;121959;-81
2023/08/15 10:38:13;;;;;;;;;;;;;;;;;;4896525;28;123147;-79
2023/08/15 10:40:39;;;;;;;;;;;;;;;;;;4903088;28;104516;-81
2023/08/15 10:43:07;;;;;;;;;;;;;;;;;;4886127;28;125112;-80
2023/08/15 10:45:34;;;;;;;;;;;;;;;;;;4871264;28;124391;-80
2023/08/15 10:48:01;;;;;;;;;;;;;;;;;;4919955;28;98299;-79
2023/08/15 10:50:29;;;;;;;;;;;;;;;;;;4904702;28;119265;-81
2023/08/15 10:52:56;;;;;;;;;;;;;;;;;;4907202;28;120811;-80
2023/08/15 10:55:22;;;;;;;;;;;;;;;;;;4903350;28;120650;-79
2023/08/15 10:57:48;;;;;;;;;;;;;;;;;;4918646;28;92417;-81
2023/08/15 11:00:15;;;;;;;;;;;;;;;;;;4903805;28;118073;-79
2023/08/15 11:02:42;;;;;;;;;;;;;;;;;;4903818;28;106783;-80
2023/08/15 11:05:09;;;;;;;;;;;;;;;;;;4916167;28;121460;-79
2023/08/15 11:07:36;;;;;;;;;;;;;;;;;;4921830;28;122318;-80
2023/08/15 11:10:02;;;;;;;;;;;;;;;;;;4919176;28;106066;-79
2023/08/15 11:12:29;;;;;;;;;;;;;;;;;;4906219;28;116917;-79
2023/08/15 11:14:55;;;;;;;;;;;;;;;;;;4908069;28;120749;-80
2023/08/15 11:17:22;;;;;;;;;;;;;;;;;;4884363;28;122184;-79
2023/08/15 11:19:48;;;;;;;;;;;;;;;;;;4875091;28;122520;-83
2023/08/15 11:22:15;;;;;;;;;;;;;;;;;;4921007;28;99166;-82
2023/08/15 11:24:41;;;;;;;;;;;;;;;;;;4914738;28;97821;-80
2023/08/15 11:27:07;;;;;;;;;;;;;;;;;;4918457;28;122461;-80
2023/08/15 11:29:34;;;;;;;;;;;;;;;;;;4917556;28;119910;-79
2023/08/15 11:32:01;;;;;;;;;;;;;;;;;;4913685;28;118895;-79
2023/08/15 11:34:29;;;;;;;;;;;;;;;;;;4893872;28;123469;-79
2023/08/15 11:36:55;;;;;;;;;;;;;;;;;;4915115;28;121418;-79
2023/08/15 11:39:21;;;;;;;;;;;;;;;;;;4915493;28;122346;-79
2023/08/15 11:41:48;;;;;;;;;;;;;;;;;;4898068;28;95422;-80
2023/08/15 11:44:17;;;;;;;;;;;;;;;;;;4911244;28;93215;-79
2023/08/15 11:46:44;;;;;;;;;;;;;;;;;;4915399;28;121076;-79
2023/08/15 11:49:19;;;;;;;;;;;;;;;;;;4903995;28;120667;-80
2023/08/15 11:51:46;;;;;;;;;;;;;;;;;;4894100;28;122894;-81
2023/08/15 11:54:13;;;;;;;;;;;;;;;;;;4914219;28;92344;-80
2023/08/15 11:56:39;;;;;;;;;;;;;;;;;;4920501;28;120789;-80
2023/08/15 11:59:05;;;;;;;;;;;;;;;;;;4901263;28;102374;-79
2023/08/15 12:01:32;;;;;;;;;;;;;;;;;;4920144;28;124365;-80
2023/08/15 12:03:58;;;;;;;;;;;;;;;;;;4899654;28;121460;-79
2023/08/15 12:06:25;;;;;;;;;;;;;;;;;;4915931;28;120807;-80
2023/08/15 12:08:52;;;;;;;;;;;;;;;;;;4916740;28;122054;-80
2023/08/15 12:11:19;;;;;;;;;;;;;;;;;;4901759;28;103900;-81
2023/08/15 12:13:45;;;;;;;;;;;;;;;;;;4916265;28;121109;-84
2023/08/15 12:16:12;;;;;;;;;;;;;;;;;;4885511;28;94055;-81
2023/08/15 12:18:41;;;;;;;;;;;;;;;;;;4920315;28;121359;-80
2023/08/15 12:21:09;;;;;;;;;;;;;;;;;;4915116;28;122008;-80
2023/08/15 12:23:38;;;;;;;;;;;;;;;;;;4911472;28;124571;-81
2023/08/15 12:26:05;;;;;;;;;;;;;;;;;;4915249;28;121064;-81
2023/08/15 12:28:32;;;;;;;;;;;;;;;;;;4883957;28;93809;-80
2023/08/15 12:30:58;;;;;;;;;;;;;;;;;;4917300;28;105763;-80
2023/08/15 12:33:24;;;;;;;;;;;;;;;;;;4915118;28;122698;-80
2023/08/15 12:36:06;;;;;;;;;;;;;;;;;;4888639;28;120982;-82
2023/08/15 12:38:33;;;;;;;;;;;;;;;;;;4894964;28;105840;-81
2023/08/15 12:40:59;;;;;;;;;;;;;;;;;;4917966;28;122224;-81
2023/08/15 12:43:25;;;;;;;;;;;;;;;;;;4894658;28;121300;-80
2023/08/15 12:45:52;;;;;;;;;;;;;;;;;;4896398;28;122632;-80
2023/08/15 12:48:18;;;;;;;;;;;;;;;;;;4895920;28;94770;-82
2023/08/15 12:50:45;;;;;;;;;;;;;;;;;;4879709;28;115484;-81
2023/08/15 12:53:11;;;;;;;;;;;;;;;;;;4883925;28;92406;-81
2023/08/15 12:55:38;;;;;;;;;;;;;;;;;;4898642;28;119234;-80
2023/08/15 12:58:04;;;;;;;;;;;;;;;;;;4901743;28;104389;-80
2023/08/15 13:00:31;;;;;;;;;;;;;;;;;;4897843;28;120696;-79
2023/08/15 13:02:57;;;;;;;;;;;;;;;;;;4900863;28;92339;-81
2023/08/15 13:05:24;;;;;;;;;;;;;;;;;;4899457;28;97032;-79
2023/08/15 13:07:50;;;;;;;;;;;;;;;;;;4898060;28;120838;-78
2023/08/15 13:10:17;;;;;;;;;;;;;;;;;;4884086;28;117867;-80
2023/08/15 13:12:43;;;;;;;;;;;;;;;;;;4888691;28;94920;-79
2023/08/15 13:15:11;;;;;;;;;;;;;;;;;;4902681;28;124327;-78
2023/08/15 13:17:37;;;;;;;;;;;;;;;;;;4888641;28;110622;-77
2023/08/15 13:20:04;;;;;;;;;;;;;;;;;;4887470;28;121095;-78
2023/08/15 13:22:30;;;;;;;;;;;;;;;;;;4902385;28;92392;-78
2023/08/15 13:24:57;;;;;;;;;;;;;;;;;;4897865;28;120904;-80
2023/08/15 13:27:23;;;;;;;;;;;;;;;;;;4896741;28;120758;-79
2023/08/15 13:29:50;;;;;;;;;;;;;;;;;;4898855;28;95539;-79
2023/08/15 13:32:16;;;;;;;;;;;;;;;;;;4897644;28;121060;-80
2023/08/15 13:34:42;;;;;;;;;;;;;;;;;;4896562;28;121910;-79
2023/08/15 13:37:09;;;;;;;;;;;;;;;;;;4894187;28;110569;-78
2023/08/15 13:39:35;;;;;;;;;;;;;;;;;;4897064;28;120684;-78
2023/08/15 13:42:03;;;;;;;;;;;;;;;;;;4902927;28;123348;-79
2023/08/15 13:44:29;;;;;;;;;;;;;;;;;;4912986;28;121440;-79
2023/08/15 13:46:56;;;;;;;;;;;;;;;;;;4915600;28;119002;-78
2023/08/15 13:49:22;;;;;;;;;;;;;;;;;;4886903;28;125113;-79
2023/08/15 13:51:48;;;;;;;;;;;;;;;;;;4917231;28;106857;-78
2023/08/15 13:54:15;;;;;;;;;;;;;;;;;;4918164;28;121539;-79
2023/08/15 13:56:41;;;;;;;;;;;;;;;;;;4918144;28;121297;-79
2023/08/15 13:59:08;;;;;;;;;;;;;;;;;;4899768;28;121214;-78
2023/08/15 14:01:34;;;;;;;;;;;;;;;;;;4915824;28;120734;-81
2023/08/15 14:04:01;;;;;;;;;;;;;;;;;;4897665;28;121225;-79
2023/08/15 14:06:28;;;;;;;;;;;;;;;;;;4887651;28;113495;-80
2023/08/15 14:08:54;;;;;;;;;;;;;;;;;;4895872;28;122520;-81
2023/08/15 14:11:21;;;;;;;;;;;;;;;;;;4886305;28;122296;-81
2023/08/15 14:13:47;;;;;;;;;;;;;;;;;;4908747;28;120545;-81
2023/08/15 14:16:14;;;;;;;;;;;;;;;;;;4902354;28;121177;-81
2023/08/15 14:18:40;;;;;;;;;;;;;;;;;;4897622;28;121021;-81
2023/08/15 14:21:09;;;;;;;;;;;;;;;;;;4895485;28;108335;-81
2023/08/15 14:23:40;;;;;;;;;;;;;;;;;;4892567;28;121515;-81
2023/08/15 14:26:06;;;;;;;;;;;;;;;;;;4915570;28;103978;-81
2023/08/15 14:28:32;;;;;;;;;;;;;;;;;;4925450;28;123289;-84
2023/08/15 14:30:59;;;;;;;;;;;;;;;;;;4919769;28;120860;-84
2023/08/15 14:33:25;;;;;;;;;;;;;;;;;;4920101;28;92362;-84
2023/08/15 14:35:52;;;;;;;;;;;;;;;;;;4899419;28;123325;-84
2023/08/15 14:38:18;;;;;;;;;;;;;;;;;;4906210;28;108214;-84
2023/08/15 14:40:45;;;;;;;;;;;;;;;;;;4897037;28;122396;-83
2023/08/15 14:43:11;;;;;;;;;;;;;;;;;;4919589;28;92144;-83
2023/08/15 14:45:38;;;;;;;;;;;;;;;;;;4916957;28;122262;-83
2023/08/15 14:48:04;;;;;;;;;;;;;;;;;;4916965;28;113884;-87
2023/08/15 14:50:31;;;;;;;;;;;;;;;;;;4917825;28;123682;-84
2023/08/15 14:52:57;;;;;;;;;;;;;;;;;;4916580;28;124566;-84
2023/08/15 14:55:24;;;;;;;;;;;;;;;;;;4918623;28;95224;-83
2023/08/15 14:57:50;;;;;;;;;;;;;;;;;;4912369;28;118173;-85
2023/08/15 15:00:17;;;;;;;;;;;;;;;;;;4916578;28;108489;-85
2023/08/15 15:02:43;;;;;;;;;;;;;;;;;;4900073;28;112100;-79
2023/08/15 15:05:09;;;;;;;;;;;;;;;;;;4909053;28;120989;-79
2023/08/15 15:07:45;;;;;;;;;;;;;;;;;;4893990;28;92301;-79
2023/08/15 15:10:12;;;;;;;;;;;;;;;;;;4911997;28;122560;-80
2023/08/15 15:12:38;;;;;;;;;;;;;;;;;;4922859;28;92396;-79
2023/08/15 15:15:05;;;;;;;;;;;;;;;;;;4902257;28;108410;-79
2023/08/15 15:17:31;;;;;;;;;;;;;;;;;;4916665;28;120982;-79
2023/08/15 15:19:58;;;;;;;;;;;;;;;;;;4899204;28;122325;-79
2023/08/15 15:22:24;;;;;;;;;;;;;;;;;;4917626;28;123983;-80
2023/08/15 15:24:50;;;;;;;;;;;;;;;;;;4919019;28;121041;-81
2023/08/15 15:27:17;;;;;;;;;;;;;;;;;;4920022;28;94383;-81
2023/08/15 15:29:43;;;;;;;;;;;;;;;;;;4893368;28;119854;-81
2023/08/15 15:32:10;;;;;;;;;;;;;;;;;;4898497;28;92082;-81
2023/08/15 15:34:36;;;;;;;;;;;;;;;;;;4901492;28;125096;-81
2023/08/15 15:37:03;;;;;;;;;;;;;;;;;;4913008;28;105071;-81
2023/08/15 15:39:29;;;;;;;;;;;;;;;;;;4920138;28;121848;-80
2023/08/15 15:41:56;;;;;;;;;;;;;;;;;;4917017;28;92292;-80
2023/08/15 15:44:22;;;;;;;;;;;;;;;;;;4923021;28;121009;-80
2023/08/15 15:46:49;;;;;;;;;;;;;;;;;;4895533;28;120543;-80
2023/08/15 15:49:20;;;;;;;;;;;;;;;;;;4889094;28;121063;-81
2023/08/15 15:51:46;;;;;;;;;;;;;;;;;;4904827;28;94723;-80
2023/08/15 15:54:13;;;;;;;;;;;;;;;;;;4892076;28;119850;-80
2023/08/15 15:56:39;;;;;;;;;;;;;;;;;;4921370;28;121142;-80
2023/08/15 15:59:06;;;;;;;;;;;;;;;;;;4900835;28;97553;-81
2023/08/15 16:01:32;;;;;;;;;;;;;;;;;;4869275;28;120993;-80
2023/08/15 16:03:59;;;;;;;;;;;;;;;;;;4915717;28;94763;-80
2023/08/15 16:06:26;;;;;;;;;;;;;;;;;;4898335;28;123393;-80
2023/08/15 16:08:53;;;;;;;;;;;;;;;;;;4917345;28;122633;-79
2023/08/15 16:11:19;;;;;;;;;;;;;;;;;;4915362;28;121099;-80
2023/08/15 16:13:45;;;;;;;;;;;;;;;;;;4916642;28;112800;-80
2023/08/15 16:16:12;;;;;;;;;;;;;;;;;;4904858;28;104793;-80
2023/08/15 16:18:38;;;;;;;;;;;;;;;;;;4894517;28;120117;-79
2023/08/15 16:21:05;;;;;;;;;;;;;;;;;;4907048;28;120793;-80
2023/08/15 16:23:31;;;;;;;;;;;;;;;;;;4916530;28;105426;-79
2023/08/15 16:25:58;;;;;;;;;;;;;;;;;;4913951;28;120555;-79